This is the latest recevied weather packets stored in our database for station/object N9CQS-13. If no packets are shown the sender has not sent any weather packets the latest 10 day(s).
| Time | Temp. | Humidity | Pressure | Rain* | Wind** | Luminosity | Snow |
|---|---|---|---|---|---|---|---|
| 1777848092 | 17.78° C | 51% | 1009.5 hPa | 0 mm | - | - | - |
| 1777847492 | 18.33° C | 50% | 1009.2 hPa | 0 mm | - | - | - |
| 1777846292 | 17.22° C | 53% | 1009.5 hPa | 0 mm | - | - | - |
| 1777845691 | 17.22° C | 53% | 1009.7 hPa | 0 mm | - | - | - |
| 1777844493 | 17.22° C | 51% | 1009.7 hPa | 0 mm | - | - | - |
| 1777843892 | 16.67° C | 54% | 1010.3 hPa | 0 mm | - | - | - |
| 1777842692 | 17.22° C | 52% | 1010.4 hPa | 0 mm | - | - | - |
| 1777842091 | 16.67° C | 52% | 1010.6 hPa | 0 mm | - | - | - |
| 1777840891 | 16.67° C | 53% | 1010.4 hPa | 0 mm | - | - | - |
| 1777840291 | 16.11° C | 54% | 1011 hPa | 0 mm | - | - | - |
| 1777839691 | 16.11° C | 53% | 1011.4 hPa | 0 mm | - | - | - |
| 1777839091 | 16.11° C | 52% | 1011.7 hPa | 0 mm | - | - | - |
| 1777838492 | 16.11° C | 52% | 1011.7 hPa | 0 mm | - | - | - |
| 1777837291 | 16.67° C | 51% | 1012.5 hPa | 0 mm | - | - | - |
| 1777836691 | 16.11° C | 51% | 1013.4 hPa | 0 mm | - | - | - |
| 1777836091 | 16.11° C | 51% | 1013.6 hPa | 0 mm | - | - | - |
| 1777835491 | 16.67° C | 52% | 1013.7 hPa | 0 mm | - | - | - |
| 1777834891 | 15.56° C | 53% | 1014.3 hPa | 0 mm | - | - | - |
| 1777834291 | 15.56° C | 51% | 1014.6 hPa | 0 mm | - | - | - |
| 1777833691 | 15.56° C | 50% | 1014.6 hPa | 0 mm | - | - | - |
| 1777833091 | 15.56° C | 49% | 1014.5 hPa | 0 mm | - | - | - |
| 1777831291 | 16.67° C | 45% | 1014.6 hPa | 0 mm | - | - | - |
| 1777830693 | 17.78° C | 42% | 1014.5 hPa | 0 mm | - | - | - |
| 1777830091 | 16.67° C | 45% | 1015.1 hPa | 0 mm | - | - | - |
| 1777829491 | 16.67° C | 45% | 1015.4 hPa | 0 mm | - | - | - |
* Rain latest hour (hover to see other rain measurements)
** Current wind speed in m/s (hover to see current wind gust speed)